Hlavní strana
METAR-TAF:

METAR-TAF

Letiště :

Mauricius, Mauritius

zeměpisná šířka: 20-26S, zeměpisná délka: 057-40E, výška: 55 m

Aktuální stav počasí

Zpráva byla vytvořena před 34 minutami, v 04:00 UTC
Jihovýchodní vítr 9 kt
Teplota 26°C
Vlhkost vzduchu 65%
Tlak 1019 hPa
Viditelnost 10 km a více
Polojasno ve výšce 1800 ft

METAR: FIMP 170400Z 13009KT 9999 SCT018 26/19 Q1019

Čas: 08:34 (04:34 UTC)

Předpověď počasí

Zpráva byla vytvořena před 4 hodinami a 44 minutami, v 23:50 UTC
Předpověď platná od 17 v 00 UTC do 18 v 06 UTC
Východojihovýchodní vítr 13 kt s nárazy do 25 kt
Viditelnost 10 km a více
Polojasno ve výšce 1600 ft
Dočasný
od 17 v 09 UTC do 18 v 03 UTC
Viditelnost: 7000 m
Oblačno až skoro zataženo ve výšce 1500 ft
slabé dešťové přeháňky

TAF: FIMP 162350Z 1700/1806 12013G25KT 9999 SCT016 TEMPO 1709/1803 7000 -SHRA BKN015

Stav a předpovědi počasí z více než 4 000 letišť (zprávy METAR a TAF).

Červené a žluté tečky na mapě představují dostupné meteorologické stanice.

Když kurzor umístíte na tečku, zobrazí se název stanice.

Pak kliknutím zobrazíte stav a předpověď počasí.

Chcete-li změnit mapu, kliknutím na zelené tlačítko se znaménkem +mapu přiblížíte, kliknutím na zelené tlačítko se znaménkem – mapu oddálíte a kliknutím na zelené šipky přejdete na sousední mapy.


METAR-TAF: